»·PEaware :: N771 KSAF-KABQ

N771 :: KSAF-KABQ

FLIGHT INFORMATION

Flight Status: Arrived
Operator: Privately registered:
United States
More flights under this callsign
Pilot: Anonymous 25573 (25573)
Aircraft: PIPER PA-30 TWIN COMANCHE
(PA30)
More flights by this aircraft type
Origin: KSAF Santa Fe Mun
United States
Destination: KABQ Albuquerque Intl Sunport
United States
More flights between these airports :: More routes between these airports
Route: SAF V611 NELGE
File this flight plan on PilotEdge
Remarks:
Altitude:
(Current/Filed)
8,500ft
Speed:
(Current/Filed)
140kts
Departed: 13-Sep-20 07:08 PM
Arrived: 13-Sep-20 07:46 PM
Distance/Time
Traveled:
43nm/0:38
Distance/Time
To Go:
Arrived

Flight Plot

Page will automatically refresh every two minutes.

Flight plan parsing failed; only flown route is shown


Map Options




Map Legend


Flown Route
Filed Route
Departure Airport
Arrival Airport
Navaid (VOR, NDB)
Fix

Horizontal Profiles

Position Reports

Time Latitude Longitude Heading Altitude Ground
Speed
13-Sep-20 18:27 35.619921 -106.083246 311 6351ft 0kts
13-Sep-20 18:28 35.619921 -106.083246 311 6351ft 0kts
13-Sep-20 18:29 35.619921 -106.083246 311 6351ft 0kts
13-Sep-20 18:30 35.619921 -106.083246 311 6351ft 0kts
13-Sep-20 18:31 35.619921 -106.083246 311 6351ft 0kts
13-Sep-20 18:32 35.619921 -106.083246 311 6351ft 0kts
13-Sep-20 18:33 35.619921 -106.083246 311 6351ft 0kts
13-Sep-20 18:34 35.619921 -106.083246 311 6351ft 0kts
13-Sep-20 18:35 35.619921 -106.083246 311 6351ft 0kts
13-Sep-20 18:36 35.619921 -106.083246 311 6351ft 0kts
13-Sep-20 18:37 35.619921 -106.083246 311 6351ft 0kts
13-Sep-20 18:38 35.619921 -106.083246 311 6351ft 0kts
13-Sep-20 18:39 35.619921 -106.083246 311 6351ft 0kts
13-Sep-20 18:40 35.619921 -106.083246 311 6351ft 0kts
13-Sep-20 18:41 35.619921 -106.083246 311 6351ft 0kts
13-Sep-20 18:42 35.619921 -106.083246 311 6351ft 0kts
13-Sep-20 18:43 35.619921 -106.083246 311 6351ft 0kts
13-Sep-20 18:44 35.619921 -106.083246 311 6351ft 0kts
13-Sep-20 18:45 35.619921 -106.083246 311 6351ft 0kts
13-Sep-20 18:46 35.619921 -106.083246 311 6351ft 0kts
13-Sep-20 18:47 35.619921 -106.083246 311 6351ft 0kts
13-Sep-20 18:48 35.619921 -106.083246 311 6351ft 0kts
13-Sep-20 18:49 35.619921 -106.083246 311 6351ft 0kts
13-Sep-20 18:50 35.619921 -106.083246 311 6351ft 0kts
13-Sep-20 18:51 35.620230 -106.083647 316 6351ft 6kts
13-Sep-20 18:52 35.620248 -106.083667 316 6351ft 0kts
13-Sep-20 18:53 35.620248 -106.083667 316 6351ft 0kts
13-Sep-20 18:54 35.620297 -106.083724 316 6351ft 0kts
13-Sep-20 18:55 35.620376 -106.083816 316 6351ft 0kts
13-Sep-20 18:57 35.620376 -106.083816 316 6351ft 0kts
13-Sep-20 18:58 35.620376 -106.083816 316 6351ft 0kts
13-Sep-20 18:59 35.620376 -106.083816 316 6351ft 0kts
13-Sep-20 19:00 35.620859 -106.083742 33 6351ft 13kts
13-Sep-20 19:01 35.624825 -106.080352 34 6351ft 11kts
13-Sep-20 19:02 35.625427 -106.079654 37 6351ft 0kts
13-Sep-20 19:03 35.625427 -106.079654 37 6351ft 0kts
13-Sep-20 19:04 35.625427 -106.079654 37 6351ft 0kts
13-Sep-20 19:05 35.625656 -106.079493 11 6351ft 6kts
13-Sep-20 19:06 35.626174 -106.079615 337 6351ft 0kts
13-Sep-20 19:07 35.626596 -106.079837 334 6351ft 11kts
13-Sep-20 19:08 35.618600 -106.087652 211 6393ft 86kts
13-Sep-20 19:09 35.599296 -106.109829 210 6846ft 99kts
13-Sep-20 19:10 35.574209 -106.103720 142 7196ft 97kts
13-Sep-20 19:10 35.559242 -106.083759 124 7510ft 96kts
13-Sep-20 19:12 35.535083 -106.070664 231 7792ft 107kts
13-Sep-20 19:13 35.524012 -106.104470 267 8119ft 108kts
13-Sep-20 19:14 35.518377 -106.140014 250 8510ft 105kts
13-Sep-20 19:14 35.510863 -106.171139 253 8713ft 126kts
13-Sep-20 19:15 35.499961 -106.214718 240 8808ft 138kts
13-Sep-20 19:17 35.482590 -106.266209 247 8523ft 135kts
13-Sep-20 19:17 35.472262 -106.302287 243 8434ft 132kts
13-Sep-20 19:18 35.453377 -106.338269 242 8667ft 129kts
13-Sep-20 19:20 35.429150 -106.381203 234 8951ft 130kts
13-Sep-20 19:20 35.413973 -106.414958 242 8544ft 137kts
13-Sep-20 19:21 35.399698 -106.454863 242 8619ft 121kts
13-Sep-20 19:22 35.383656 -106.491167 235 8467ft 118kts
13-Sep-20 19:23 35.368346 -106.527017 252 8528ft 121kts
13-Sep-20 19:24 35.352645 -106.561924 225 8632ft 118kts
13-Sep-20 19:25 35.322540 -106.578230 199 8612ft 120kts
13-Sep-20 19:26 35.291191 -106.591866 201 8514ft 120kts
13-Sep-20 19:27 35.260436 -106.605813 197 8498ft 118kts
13-Sep-20 19:28 35.261688 -106.628174 23 8561ft 115kts
13-Sep-20 19:29 35.261952 -106.601882 193 8507ft 115kts
13-Sep-20 19:30 35.260828 -106.634820 274 8754ft 96kts
13-Sep-20 19:31 35.252097 -106.665584 259 8914ft 102kts
13-Sep-20 19:32 35.262577 -106.680812 90 8746ft 108kts
13-Sep-20 19:33 35.261315 -106.646136 91 8494ft 102kts
13-Sep-20 19:34 35.258694 -106.625702 110 8535ft 96kts
13-Sep-20 19:35 35.256978 -106.611001 81 8604ft 100kts
13-Sep-20 19:36 35.279365 -106.590061 335 8619ft 113kts
13-Sep-20 19:37 35.273466 -106.620966 231 8691ft 103kts
13-Sep-20 19:38 35.247977 -106.639744 188 8577ft 119kts
13-Sep-20 19:39 35.213569 -106.646136 187 8560ft 135kts
13-Sep-20 19:40 35.175544 -106.652719 185 8670ft 138kts
13-Sep-20 19:41 35.139133 -106.653985 174 8111ft 124kts
13-Sep-20 19:42 35.105501 -106.650947 171 7195ft 122kts
13-Sep-20 19:43 35.074290 -106.646941 173 6580ft 105kts
13-Sep-20 19:44 35.050026 -106.637459 133 6034ft 88kts
13-Sep-20 19:45 35.044277 -106.615145 88 5357ft 32kts
13-Sep-20 19:46 35.043743 -106.589390 99 5790ft 98kts
13-Sep-20 19:47 35.029429 -106.567162 194 6572ft 104kts
13-Sep-20 19:48 35.024315 -106.601310 283 6290ft 113kts
13-Sep-20 19:49 35.031388 -106.638158 276 6209ft 112kts
13-Sep-20 19:50 35.044604 -106.641852 97 5785ft 88kts
13-Sep-20 19:51 35.044255 -106.613538 92 5357ft 63kts
13-Sep-20 19:52 35.044462 -106.589864 91 5591ft 93kts
13-Sep-20 19:53 35.041147 -106.560271 164 6387ft 111kts
13-Sep-20 19:54 35.017303 -106.572150 259 6397ft 110kts
13-Sep-20 19:55 35.019100 -106.609063 273 6444ft 109kts
13-Sep-20 19:56 35.023180 -106.644329 324 6037ft 110kts
13-Sep-20 19:57 35.044326 -106.630563 83 5645ft 83kts
13-Sep-20 19:58 35.044265 -106.607733 90 5357ft 64kts
13-Sep-20 19:59 35.042765 -106.576830 98 6224ft 97kts
13-Sep-20 20:00 35.021890 -106.573574 257 6475ft 116kts

Navigation Log

Ident Type
Flight plan parsing failed, navigation log unavailable